Casa, Arkansas
Current Conditions -  °F | °C
As of 7:53 AM on Wednesday 28 Jan 2015 (Local Time) from KRUE Reporting Station
Clear Clear  
Wind Chill: 38°   Ceiling: Unl
Heat Index: 43°   Visibility: 10mi
Dew Point: 35°   Wind: 9mph
Humidity: 74%   Direction: 110°ESE
Pressure: 30.21"   Gusts: NA
Location:  35.02°N, 93.05°W
Report Text: KRUE 281353Z AUTO 11008KT 10SM CLR 06/02 A3021 RMK AO2 SLP228 T00610017
Loading
Personal Weather Stations






























Interactive Weather Map New forecast layout! Learn more

10-Day Weather Forecast

Advertisements
Track Severe Weather on mobile